Time;durP1;ratioP1;P1;durP2;ratioP2;P2;SDS_P1;SDS_P2;PMS_P1;PMS_P2;Temp;Humidity;BMP_temperature;BMP_pressure;BME280_temperature;BME280_humidity;BME280_pressure;Samples;Min_cycle;Max_cycle;Signal;HPM_P1;HPM_P2
2021/03/23 00:01:03;;;;;;;25.05;11.52;;;5.90;77.90;;;4.70;66.15;99193.75;5099595;28;20413;-78
2021/03/23 00:03:32;;;;;;;21.83;11.52;;;5.80;78.10;;;4.75;65.98;99196.69;5097824;28;20934;-78
2021/03/23 00:05:59;;;;;;;23.17;11.45;;;5.80;78.30;;;4.77;66.02;99198.16;5099908;28;20426;-78
2021/03/23 00:08:30;;;;;;;26.58;12.10;;;5.90;78.10;;;4.84;65.91;99196.50;5099968;28;20413;-78
2021/03/23 00:10:59;;;;;;;23.35;11.38;;;5.90;78.80;;;4.86;65.77;99191.91;5100126;28;20406;-78
2021/03/23 00:13:26;;;;;;;25.48;11.93;;;5.90;78.00;;;4.83;65.62;99188.78;5096822;28;20752;-78
2021/03/23 00:15:52;;;;;;;21.63;11.55;;;5.90;77.60;;;4.78;66.07;99194.56;5096802;28;20425;-78
2021/03/23 00:18:22;;;;;;;24.15;11.65;;;5.90;78.00;;;4.74;66.09;99192.41;5095162;28;20474;-78
2021/03/23 00:20:48;;;;;;;22.40;11.98;;;5.90;78.10;;;4.67;66.29;99187.84;5094771;28;20410;-79
2021/03/23 00:23:15;;;;;;;24.52;12.00;;;5.80;78.30;;;4.72;66.28;99197.03;5094267;28;20414;-78
2021/03/23 00:25:42;;;;;;;21.83;11.68;;;5.80;78.50;;;4.69;66.32;99190.31;5096862;28;20410;-78
2021/03/23 00:28:10;;;;;;;27.50;11.55;;;5.80;78.50;;;4.66;66.26;99188.03;5080629;28;20418;-78
2021/03/23 00:30:36;;;;;;;23.98;11.82;;;5.80;78.60;;;4.66;66.51;99195.91;5097684;28;20434;-78
2021/03/23 00:33:02;;;;;;;25.40;11.60;;;5.80;78.80;;;4.65;66.58;99187.22;5096814;28;20586;-78
2021/03/23 00:35:29;;;;;;;24.40;12.80;;;5.80;78.70;;;4.63;66.64;99193.63;5082828;28;20418;-78
2021/03/23 00:37:59;;;;;;;26.88;12.07;;;5.70;78.90;;;4.57;67.04;99192.50;5086221;28;20447;-78
2021/03/23 00:40:30;;;;;;;20.63;11.60;;;5.70;79.20;;;4.63;66.87;99197.06;5100115;28;20494;-78
2021/03/23 00:42:57;;;;;;;22.50;12.60;;;5.70;79.30;;;4.62;66.92;99194.59;5104881;28;20406;-78
2021/03/23 00:45:25;;;;;;;24.08;11.55;;;5.80;79.20;;;4.64;66.99;99188.22;5106468;28;20428;-78
2021/03/23 00:47:51;;;;;;;22.50;12.35;;;5.80;79.20;;;4.72;66.79;99194.41;5101287;28;20410;-78
2021/03/23 00:50:17;;;;;;;26.45;12.68;;;5.80;79.20;;;4.66;67.08;99195.91;5098419;28;20425;-78
2021/03/23 00:52:44;;;;;;;30.77;12.87;;;5.80;79.30;;;4.59;67.58;99197.53;5081859;28;20474;-78
2021/03/23 00:55:11;;;;;;;26.60;13.05;;;5.70;79.70;;;4.53;68.11;99191.19;5105564;28;20471;-78
2021/03/23 00:57:37;;;;;;;24.30;12.70;;;5.70;80.50;;;4.60;67.58;99194.75;5084768;28;20767;-78
2021/03/23 01:00:08;;;;;;;27.02;12.70;;;5.70;80.30;;;4.49;68.08;99189.88;5097980;28;20402;-78
2021/03/23 01:02:35;;;;;;;24.35;13.23;;;5.60;80.40;;;4.49;68.13;99192.50;5096062;28;20409;-78
2021/03/23 01:05:01;;;;;;;28.55;14.23;;;5.60;80.40;;;4.49;68.09;99183.81;5078352;28;20414;-78
2021/03/23 01:07:27;;;;;;;26.07;12.90;;;5.60;80.70;;;4.53;68.12;99190.34;5078577;28;20789;-78
2021/03/23 01:09:54;;;;;;;25.88;13.00;;;5.60;80.70;;;4.57;68.05;99194.28;5099371;28;20424;-78
2021/03/23 01:12:21;;;;;;;24.88;13.25;;;5.70;80.70;;;4.49;68.55;99189.06;5100097;28;20422;-78
2021/03/23 01:14:47;;;;;;;26.60;14.37;;;5.60;80.70;;;4.47;68.42;99188.41;5099837;28;20636;-78
2021/03/23 01:17:13;;;;;;;27.27;13.55;;;5.60;80.90;;;4.37;68.71;99182.53;5100601;28;20466;-78
2021/03/23 01:19:39;;;;;;;26.02;14.05;;;5.50;81.90;;;4.40;68.90;99188.25;5100974;28;20412;-78
2021/03/23 01:22:05;;;;;;;27.05;14.65;;;5.50;81.50;;;4.41;68.80;99187.28;5101404;28;20410;-78
2021/03/23 01:24:32;;;;;;;28.10;15.02;;;5.50;81.50;;;4.42;68.88;99185.47;5102545;28;20442;-79
2021/03/23 01:27:00;;;;;;;29.33;13.43;;;5.50;81.50;;;4.49;68.84;99184.66;5101730;28;20418;-78
2021/03/23 01:29:27;;;;;;;28.30;14.57;;;5.60;81.50;;;4.40;69.02;99193.50;5101433;28;20413;-76
2021/03/23 01:31:53;;;;;;;27.33;14.77;;;5.60;82.30;;;4.37;69.35;99185.16;5101553;28;20492;-79
2021/03/23 01:34:19;;;;;;;28.20;14.48;;;5.50;82.10;;;4.38;69.32;99182.38;5102247;28;20424;-79
2021/03/23 01:36:45;;;;;;;26.75;14.40;;;5.50;82.10;;;4.36;69.67;99188.78;5102138;28;20410;-78
2021/03/23 01:39:12;;;;;;;30.38;15.38;;;5.50;82.10;;;4.31;69.72;99198.91;5100484;28;20402;-79
2021/03/23 01:41:38;;;;;;;32.38;15.50;;;5.50;82.30;;;4.36;69.89;99191.41;5100900;28;20814;-78
2021/03/23 01:44:05;;;;;;;28.80;14.68;;;5.50;82.50;;;4.34;69.96;99190.75;5100009;28;20425;-78
2021/03/23 01:46:40;;;;;;;29.45;15.40;;;5.50;82.50;;;4.27;70.25;99190.59;5100274;28;20422;-78
2021/03/23 01:49:15;;;;;;;30.65;16.52;;;5.40;82.90;;;4.24;70.18;99185.66;5099929;28;20492;-79
2021/03/23 01:51:42;;;;;;;33.40;16.90;;;5.40;83.30;;;4.25;70.35;99179.44;5100876;28;20495;-78
2021/03/23 01:54:15;;;;;;;33.13;16.90;;;5.40;83.30;;;4.25;70.74;99184.69;5099016;28;20402;-78
2021/03/23 01:56:43;;;;;;;33.45;18.00;;;5.40;83.60;;;4.31;70.61;99178.78;5081636;28;20422;-78
2021/03/23 01:59:10;;;;;;;33.70;18.60;;;5.40;83.60;;;4.28;70.80;99177.28;5099125;28;20412;-78
2021/03/23 02:01:37;;;;;;;37.03;19.60;;;5.40;83.70;;;4.28;70.84;99177.28;5100445;28;20492;-78
2021/03/23 02:04:05;;;;;;;38.58;20.35;;;5.40;83.80;;;4.31;70.37;99178.78;5099470;28;20402;-78
2021/03/23 02:06:37;;;;;;;38.83;20.35;;;5.40;83.90;;;4.34;70.97;99180.25;5083320;28;20432;-79
2021/03/23 02:09:06;;;;;;;40.63;20.87;;;5.40;84.00;;;4.29;71.16;99176.31;5082257;28;20545;-78
2021/03/23 02:11:36;;;;;;;38.53;21.38;;;5.40;83.80;;;4.29;70.99;99176.31;5098818;28;20410;-78
2021/03/23 02:14:02;;;;;;;44.45;23.17;;;5.40;84.00;;;4.32;71.03;99176.97;5098467;28;20410;-78
2021/03/23 02:16:29;;;;;;;40.15;22.10;;;5.40;84.10;;;4.32;71.04;99169.09;5097482;28;20402;-78
2021/03/23 02:18:55;;;;;;;43.75;22.95;;;5.50;84.10;;;4.26;71.16;99178.47;5097875;28;20467;-78
2021/03/23 02:21:22;;;;;;;42.35;22.70;;;5.40;84.10;;;4.23;71.31;99181.41;5097884;28;20741;-78
2021/03/23 02:23:51;;;;;;;48.22;23.98;;;5.40;84.30;;;4.31;71.13;99177.94;5098804;28;20413;-79
2021/03/23 02:26:23;;;;;;;46.80;25.08;;;5.40;84.40;;;4.35;70.92;99174.84;5100038;28;20429;-79
2021/03/23 02:28:53;;;;;;;49.70;24.70;;;5.40;84.10;;;4.31;71.02;99172.72;5100081;28;20398;-78
2021/03/23 02:31:24;;;;;;;40.53;24.00;;;5.40;84.10;;;4.39;70.98;99176.13;5099106;28;20773;-78
2021/03/23 02:33:51;;;;;;;47.42;24.30;;;5.50;83.90;;;4.26;70.97;99170.59;5100877;28;20410;-78
2021/03/23 02:36:17;;;;;;;48.23;25.13;;;5.40;84.00;;;4.25;71.40;99174.22;5099130;28;20401;-78
2021/03/23 02:38:44;;;;;;;42.83;24.87;;;5.30;84.30;;;4.32;70.85;99172.56;5081387;28;20541;-78
2021/03/23 02:41:11;;;;;;;46.15;25.48;;;5.40;84.20;;;4.34;70.78;99177.63;5098977;28;20776;-78
2021/03/23 02:43:37;;;;;;;49.63;25.38;;;5.50;83.90;;;4.39;70.83;99181.38;5099514;28;20768;-78
2021/03/23 02:46:04;;;;;;;53.55;25.80;;;5.50;84.00;;;4.49;70.53;99173.34;5099346;28;20428;-79
2021/03/23 02:48:30;;;;;;;46.07;25.83;;;5.50;83.80;;;4.52;70.50;99173.78;5099912;28;20669;-79
2021/03/23 02:50:56;;;;;;;49.13;26.52;;;5.60;83.40;;;4.72;69.77;99176.03;5099924;28;20455;-79
2021/03/23 02:53:23;;;;;;;47.10;24.42;;;5.70;82.90;;;4.60;69.68;99173.78;5098922;28;20474;-78
2021/03/23 02:55:50;;;;;;;44.70;24.10;;;5.70;82.50;;;4.59;69.58;99166.88;5100221;28;20463;-78
2021/03/23 02:58:17;;;;;;;43.28;24.90;;;5.70;83.40;;;4.52;69.98;99168.56;5099588;28;20483;-78
2021/03/23 03:00:44;;;;;;;47.45;25.27;;;5.60;82.80;;;4.38;70.42;99165.81;5099051;28;20406;-78
2021/03/23 03:03:10;;;;;;;42.65;23.63;;;5.50;83.20;;;4.39;70.31;99167.44;5098449;28;20452;-79
2021/03/23 03:05:37;;;;;;;46.17;25.40;;;5.50;83.20;;;4.43;70.16;99163.53;5096867;28;20421;-78
2021/03/23 03:08:04;;;;;;;46.47;25.77;;;5.50;83.30;;;4.43;69.93;99161.72;5097424;28;20409;-78
2021/03/23 03:10:31;;;;;;;46.75;26.35;;;5.60;83.20;;;4.43;70.32;99159.09;5097457;28;20784;-78
2021/03/23 03:13:00;;;;;;;51.20;24.83;;;5.50;83.20;;;4.38;70.38;99160.56;5097643;28;20426;-78
2021/03/23 03:15:27;;;;;;;48.97;24.48;;;5.50;83.30;;;4.40;70.46;99156.81;5104310;28;20448;-78
2021/03/23 03:17:53;;;;;;;44.45;24.77;;;5.50;83.40;;;4.35;70.40;99164.38;5091259;28;20421;-78
2021/03/23 03:20:20;;;;;;;45.88;24.85;;;5.50;83.30;;;4.34;70.46;99159.28;5092382;28;20564;-78
2021/03/23 03:22:46;;;;;;;49.63;25.00;;;5.50;83.30;;;4.35;70.27;99160.91;5099559;28;20420;-78
2021/03/23 03:25:14;;;;;;;49.15;25.60;;;5.50;83.20;;;4.42;70.07;99160.09;5081298;28;20449;-78
2021/03/23 03:27:41;;;;;;;47.08;24.67;;;5.50;83.30;;;4.49;70.04;99160.22;5098777;28;20421;-78
2021/03/23 03:30:18;;;;;;;44.35;24.98;;;5.60;83.00;;;4.48;69.79;99161.22;5082253;28;20438;-78
2021/03/23 03:32:44;;;;;;;49.80;25.35;;;5.60;82.90;;;4.33;70.43;99157.63;5098078;28;20418;-78
2021/03/23 03:35:11;;;;;;;52.78;26.08;;;5.50;83.10;;;4.40;70.30;99162.03;5098726;28;20398;-78
2021/03/23 03:37:38;;;;;;;46.38;25.65;;;5.50;83.30;;;4.44;70.13;99162.50;5096330;28;20725;-77
2021/03/23 03:40:07;;;;;;;52.40;25.83;;;5.50;83.20;;;4.46;69.85;99156.13;5077118;28;20653;-78
2021/03/23 03:42:33;;;;;;;45.35;24.38;;;5.60;83.00;;;4.46;69.95;99156.13;5095991;28;20509;-77
2021/03/23 03:44:59;;;;;;;46.27;25.00;;;5.60;83.00;;;4.53;69.72;99164.13;5100302;28;20421;-78
2021/03/23 03:47:27;;;;;;;49.00;26.33;;;5.60;82.70;;;4.56;69.40;99154.13;5096581;28;20410;-78
2021/03/23 03:49:53;;;;;;;50.05;25.98;;;5.60;82.60;;;4.64;69.00;99159.34;5081250;28;20517;-78
2021/03/23 03:52:19;;;;;;;48.80;24.55;;;5.70;82.10;;;4.54;69.21;99156.09;5101197;28;20433;-77
2021/03/23 03:54:45;;;;;;;43.67;24.90;;;5.70;81.90;;;4.48;69.55;99155.97;5101301;28;20409;-77
2021/03/23 03:57:11;;;;;;;44.63;24.42;;;5.60;83.00;;;4.49;69.51;99165.47;5101158;28;20901;-77
2021/03/23 03:59:37;;;;;;;46.22;24.75;;;5.50;82.50;;;4.56;69.34;99163.81;5098641;28;20402;-78
2021/03/23 04:02:04;;;;;;;51.15;25.83;;;5.60;82.50;;;4.58;69.22;99161.84;5080999;28;20471;-78
2021/03/23 04:04:31;;;;;;;51.55;24.65;;;5.70;82.20;;;4.50;69.21;99165.31;5098474;28;20425;-78
2021/03/23 04:06:57;;;;;;;50.78;25.58;;;5.70;82.00;;;4.42;69.86;99167.94;5097232;28;20433;-77
2021/03/23 04:09:23;;;;;;;47.13;25.10;;;5.60;82.70;;;4.46;69.60;99168.41;5079401;28;20406;-77
2021/03/23 04:11:49;;;;;;;50.92;24.83;;;5.60;82.60;;;4.47;69.64;99170.06;5078491;28;20425;-77
2021/03/23 04:14:15;;;;;;;47.08;25.45;;;5.60;82.50;;;4.58;69.32;99172.34;5095102;28;20405;-77
2021/03/23 04:16:41;;;;;;;45.78;24.40;;;5.60;82.30;;;4.52;69.59;99171.19;5095020;28;20414;-77
2021/03/23 04:19:07;;;;;;;47.38;25.00;;;5.60;82.10;;;4.51;69.28;99177.41;5102039;28;20390;-79
2021/03/23 04:21:35;;;;;;;47.58;24.92;;;5.60;82.30;;;4.51;69.39;99179.25;5098367;28;20409;-79
2021/03/23 04:24:01;;;;;;;50.15;24.75;;;5.60;82.20;;;4.41;69.54;99187.28;5097886;28;20824;-79
2021/03/23 04:26:27;;;;;;;45.80;24.48;;;5.60;82.30;;;4.43;69.72;99180.06;5098029;28;20429;-78
2021/03/23 04:28:53;;;;;;;44.60;25.02;;;5.60;82.50;;;4.48;69.43;99182.19;5095809;28;20402;-78
2021/03/23 04:31:36;;;;;;;45.95;24.27;;;5.60;82.50;;;4.55;69.22;99181.34;5093900;28;20436;-77
2021/03/23 04:34:03;;;;;;;48.53;25.20;;;5.60;82.20;;;4.51;69.28;99184.47;5097021;28;20405;-79
2021/03/23 04:36:29;;;;;;;44.17;24.33;;;5.60;82.20;;;4.52;69.47;99192.16;5096977;28;20497;-78
2021/03/23 04:38:57;;;;;;;47.80;24.55;;;5.60;82.30;;;4.59;69.07;99194.91;5096632;28;20467;-79
2021/03/23 04:41:24;;;;;;;47.83;24.13;;;5.70;82.10;;;4.56;69.19;99192.66;5097443;28;20405;-79
2021/03/23 04:43:51;;;;;;;48.67;24.48;;;5.60;82.10;;;4.63;68.90;99197.06;5100182;28;20812;-79
2021/03/23 04:46:21;;;;;;;48.55;25.33;;;5.70;81.90;;;4.63;69.08;99199.69;5100559;28;20428;-78
2021/03/23 04:48:48;;;;;;;44.83;23.87;;;5.70;81.80;;;4.54;69.09;99192.00;5097940;28;20405;-77
2021/03/23 04:51:15;;;;;;;45.10;24.95;;;5.70;82.00;;;4.62;69.08;99200.66;5098889;28;20398;-77
2021/03/23 04:53:42;;;;;;;48.25;25.13;;;5.70;82.00;;;4.66;68.66;99203.78;5101937;28;20649;-78
2021/03/23 04:56:22;;;;;;;42.38;23.77;;;5.70;81.70;;;4.70;68.90;99202.44;5101600;28;20590;-79
2021/03/23 04:58:49;;;;;;;47.70;24.42;;;5.80;81.50;;;4.64;68.73;99206.56;5103782;28;20477;-79
2021/03/23 05:01:15;;;;;;;45.83;25.08;;;5.80;81.40;;;4.53;69.41;99204.28;5085747;28;20436;-79
2021/03/23 05:03:42;;;;;;;51.63;26.33;;;5.60;82.00;;;4.55;69.30;99212.81;5103566;28;20404;-79
2021/03/23 05:06:09;;;;;;;45.92;24.35;;;5.60;83.00;;;4.57;69.28;99210.84;5084578;28;20444;-81
2021/03/23 05:08:38;;;;;;;50.15;24.92;;;5.70;82.30;;;4.55;69.46;99212.00;5102281;28;20394;-79
2021/03/23 05:11:05;;;;;;;49.78;25.35;;;5.60;82.30;;;4.57;69.35;99210.03;5103427;28;20455;-79
2021/03/23 05:13:33;;;;;;;50.00;25.38;;;5.60;82.20;;;4.58;69.20;99209.88;5084481;28;20536;-80
2021/03/23 05:15:59;;;;;;;46.95;24.85;;;5.70;82.20;;;4.62;68.96;99216.41;5084270;28;20931;-79
2021/03/23 05:18:26;;;;;;;43.30;23.88;;;5.70;82.10;;;4.56;69.10;99221.50;5101713;28;20692;-79
2021/03/23 05:20:52;;;;;;;51.17;23.88;;;5.70;81.90;;;4.61;69.10;99214.75;5102621;28;20406;-79
2021/03/23 05:23:19;;;;;;;46.80;25.65;;;5.70;81.90;;;4.56;69.24;99211.84;5101835;28;20425;-79
2021/03/23 05:25:46;;;;;;;48.53;25.77;;;5.70;81.90;;;4.53;69.14;99212.16;5102389;28;20491;-79
2021/03/23 05:28:14;;;;;;;45.97;24.77;;;5.60;82.10;;;4.62;69.10;99213.78;5102401;28;20413;-78
2021/03/23 05:30:42;;;;;;;54.20;25.98;;;5.60;82.20;;;4.67;69.01;99213.25;5101516;28;20402;-78
2021/03/23 05:33:09;;;;;;;49.37;25.67;;;5.70;82.20;;;4.62;68.97;99220.81;5098593;28;20485;-78
2021/03/23 05:35:36;;;;;;;44.45;25.02;;;5.70;82.00;;;4.61;68.99;99208.69;5099460;28;20406;-78
2021/03/23 05:38:02;;;;;;;48.65;25.52;;;5.70;82.10;;;4.61;69.03;99214.75;5100217;28;20422;-78
2021/03/23 05:40:33;;;;;;;52.60;25.38;;;5.70;82.00;;;4.67;68.70;99218.50;5081947;28;20425;-78
2021/03/23 05:43:31;;;;;;;44.65;25.42;;;5.70;82.00;;;4.68;68.86;99230.63;5100166;28;20474;-77
2021/03/23 05:46:03;;;;;;;48.67;27.10;;;5.70;81.90;;;4.66;68.85;99228.19;5080584;28;20453;-78
2021/03/23 05:48:32;;;;;;;51.15;25.48;;;5.70;81.80;;;4.69;68.95;99229.66;5100074;28;20398;-78
2021/03/23 05:51:13;;;;;;;50.47;26.65;;;5.70;81.90;;;4.78;68.61;99227.84;5099364;28;20505;-77
2021/03/23 05:53:44;;;;;;;50.92;25.58;;;5.80;81.70;;;4.84;68.35;99224.53;5098554;28;20402;-77
2021/03/23 05:56:11;;;;;;;57.77;26.33;;;5.90;81.40;;;4.82;68.22;99231.75;5099812;28;20406;-78
2021/03/23 05:58:46;;;;;;;49.45;25.67;;;5.90;81.10;;;4.85;68.16;99228.78;5100856;28;20566;-78
2021/03/23 06:01:22;;;;;;;51.77;26.70;;;5.90;81.30;;;4.86;68.12;99239.13;5082669;28;20527;-78
2021/03/23 06:03:54;;;;;;;53.80;27.07;;;5.90;81.20;;;4.80;68.30;99238.97;5099954;28;20409;-79
2021/03/23 06:06:40;;;;;;;48.57;26.20;;;5.80;81.10;;;4.76;68.49;99241.09;5100532;28;20703;-79
2021/03/23 06:09:11;;;;;;;45.00;24.90;;;5.80;81.40;;;4.85;68.04;99245.34;5081780;28;20421;-80
2021/03/23 06:12:03;;;;;;;52.67;26.88;;;5.90;81.00;;;4.85;68.23;99249.78;5099327;28;20413;-79
2021/03/23 06:14:39;;;;;;;50.85;26.30;;;5.90;80.80;;;4.83;68.21;99244.69;5099432;28;20417;-80
2021/03/23 06:17:18;;;;;;;54.92;25.98;;;5.90;81.00;;;4.85;68.13;99250.59;5107687;28;20410;-79
2021/03/23 06:19:52;;;;;;;64.60;34.07;;;5.90;81.00;;;4.82;68.16;99245.69;5102210;28;20477;-80
2021/03/23 06:22:37;;;;;;;54.65;26.00;;;5.90;81.00;;;4.78;68.80;99254.88;5084847;28;20578;-80
2021/03/23 06:25:24;;;;;;;51.13;26.45;;;5.90;81.40;;;4.87;68.48;99259.13;5102484;28;20418;-80
2021/03/23 06:27:55;;;;;;;64.47;29.70;;;5.90;81.20;;;4.79;68.66;99258.34;5085490;28;20489;-80
2021/03/23 06:30:43;;;;;;;58.97;27.73;;;5.90;81.10;;;5.01;67.95;99262.84;5106761;28;20409;-80
2021/03/23 06:33:14;;;;;;;52.93;27.17;;;6.00;80.90;;;5.22;66.94;99267.53;5097370;28;20493;-80
2021/03/23 06:35:44;;;;;;;55.92;27.42;;;6.20;80.20;;;5.20;66.99;99266.88;5113841;28;20410;-81
2021/03/23 06:38:24;;;;;;;53.75;26.63;;;6.20;79.80;;;5.28;67.07;99274.72;5110819;28;20486;-79
2021/03/23 06:41:16;;;;;;;52.50;26.65;;;6.20;79.70;;;5.11;67.40;99275.78;5107142;28;20428;-80
2021/03/23 06:43:45;;;;;;;52.33;26.55;;;6.20;80.00;;;5.16;67.28;99276.09;5093302;28;20440;-79
2021/03/23 06:46:40;;;;;;;50.13;26.60;;;6.20;80.10;;;5.03;67.55;99274.81;5111341;28;20437;-80
2021/03/23 06:49:29;;;;;;;49.95;27.77;;;6.10;80.20;;;4.97;67.61;99277.28;5114500;28;20404;-80
2021/03/23 06:52:18;;;;;;;56.77;29.53;;;6.10;80.30;;;4.91;68.11;99275.34;5094783;28;20448;-80
2021/03/23 06:55:04;;;;;;;52.95;26.65;;;6.00;80.80;;;4.92;68.23;99284.84;5109173;28;20390;-79
2021/03/23 06:57:38;;;;;;;58.60;27.58;;;6.00;80.90;;;4.96;68.02;99284.34;5091960;28;20421;-80
2021/03/23 07:00:23;;;;;;;49.67;26.80;;;6.00;80.90;;;5.02;67.69;99283.69;5100153;28;20478;-81
2021/03/23 07:02:54;;;;;;;60.40;28.67;;;6.10;80.50;;;5.03;67.92;99279.25;5081205;28;20474;-81
2021/03/23 07:05:35;;;;;;;53.15;27.55;;;6.10;80.60;;;5.11;67.65;99281.03;5097969;28;20452;-80
2021/03/23 07:08:18;;;;;;;58.65;29.60;;;6.10;80.50;;;5.18;67.46;99284.63;5098771;28;20831;-80
2021/03/23 07:11:09;;;;;;;55.58;28.63;;;6.20;80.30;;;5.23;67.13;99285.75;5082585;28;20418;-81
2021/03/23 07:13:41;;;;;;;62.35;30.20;;;6.30;79.80;;;5.49;66.71;99288.06;5099433;28;20524;-80
2021/03/23 07:16:26;;;;;;;54.67;29.65;;;6.40;79.70;;;5.72;65.54;99290.75;5081886;28;20819;-80
2021/03/23 07:18:54;;;;;;;56.85;28.15;;;6.60;78.50;;;5.77;65.34;99291.88;5098286;28;20459;-80
2021/03/23 07:21:42;;;;;;;56.80;30.17;;;6.70;78.00;;;5.71;65.56;99294.38;5098337;28;20799;-80
2021/03/23 07:24:11;;;;;;;51.75;27.55;;;6.70;78.20;;;5.73;65.40;99300.25;5103029;28;20677;-79
2021/03/23 07:26:54;;;;;;;73.35;29.45;;;6.70;78.00;;;5.70;65.46;99304.06;5101176;28;20508;-79
2021/03/23 07:29:30;;;;;;;58.17;29.30;;;6.70;78.00;;;5.66;65.78;99304.56;5103463;28;20732;-78
2021/03/23 07:32:20;;;;;;;96.00;32.20;;;6.70;77.90;;;5.95;67.46;99310.00;5101888;28;20417;-80
2021/03/23 07:35:09;;;;;;;54.65;29.55;;;6.90;82.80;;;5.98;64.71;99306.22;5099173;28;20888;-78
2021/03/23 07:37:59;;;;;;;52.22;28.58;;;7.00;77.80;;;5.65;65.52;99302.94;5097846;28;20416;-80
2021/03/23 07:40:36;;;;;;;58.65;29.25;;;6.80;77.20;;;5.50;66.31;99310.72;5101075;28;20405;-79
2021/03/23 07:43:49;;;;;;;57.07;29.97;;;6.60;78.30;;;5.63;66.10;99305.75;5100238;28;20425;-79
2021/03/23 07:46:23;;;;;;;50.80;28.93;;;6.60;78.90;;;5.94;64.87;99312.84;4999596;28;20767;-79
2021/03/23 07:49:01;;;;;;;51.37;28.93;;;6.80;78.00;;;6.06;64.17;99314.06;5005279;28;20435;-79
2021/03/23 07:51:33;;;;;;;60.97;28.70;;;6.90;77.00;;;5.90;64.79;99311.53;5065861;28;20428;-79
2021/03/23 07:54:32;;;;;;;58.28;27.75;;;6.90;77.10;;;5.73;65.63;99311.59;5103833;28;20416;-79
2021/03/23 07:57:53;;;;;;;59.00;28.83;;;6.80;77.60;;;5.76;65.49;99306.00;5101222;28;20490;-79
2021/03/23 08:00:44;;;;;;;57.80;27.58;;;6.70;78.30;;;5.69;65.58;99317.38;5074507;28;20418;-79
2021/03/23 08:04:07;;;;;;;52.20;27.40;;;6.70;78.20;;;5.52;66.35;99318.44;5076479;28;20421;-79
2021/03/23 08:07:01;;;;;;;60.25;28.55;;;6.60;78.50;;;5.90;64.94;99324.66;5089998;28;20430;-79
2021/03/23 08:10:00;;;;;;;68.13;29.52;;;6.70;78.30;;;6.00;64.78;99320.84;5099421;28;20401;-79
2021/03/23 08:13:15;;;;;;;58.67;29.07;;;7.00;77.60;;;6.08;64.34;99323.41;5100548;28;20413;-80
2021/03/23 08:16:17;;;;;;;50.30;28.20;;;7.10;76.90;;;5.74;65.38;99318.50;5099933;28;20730;-80
2021/03/23 08:19:29;;;;;;;60.22;29.55;;;6.90;77.20;;;5.66;65.87;99326.41;5089584;28;20409;-80
2021/03/23 08:22:48;;;;;;;58.95;28.35;;;6.70;77.90;;;5.99;64.59;99326.28;5087510;28;20428;-80
2021/03/23 08:25:27;;;;;;;55.97;28.15;;;6.90;77.50;;;6.01;64.26;99326.91;5103881;28;20586;-81
2021/03/23 08:28:29;;;;;;;56.60;28.33;;;7.00;76.80;;;6.03;64.31;99324.91;5104347;28;20421;-80
2021/03/23 08:31:27;;;;;;;58.40;28.67;;;7.00;76.70;;;5.83;64.92;99327.16;5104621;28;20409;-79
2021/03/23 08:34:37;;;;;;;50.80;25.95;;;7.00;76.90;;;5.77;64.96;99323.41;5073934;28;20491;-79
2021/03/23 08:37:36;;;;;;;48.83;25.15;;;6.80;77.00;;;5.75;65.11;99324.56;5099191;28;20437;-80
2021/03/23 08:40:24;;;;;;;46.10;24.80;;;6.80;76.80;;;5.79;64.62;99323.22;5071270;28;20444;-80
2021/03/23 08:42:50;;;;;;;49.67;25.80;;;6.90;76.80;;;5.87;64.33;99324.97;5103804;28;20455;-80
2021/03/23 08:45:22;;;;;;;50.10;25.42;;;7.00;76.50;;;5.89;64.36;99323.03;5104380;28;20436;-81
2021/03/23 08:47:57;;;;;;;48.97;25.52;;;7.00;76.50;;;6.00;64.41;99325.28;5100547;28;20433;-80
2021/03/23 08:50:30;;;;;;;53.03;25.48;;;7.10;76.30;;;5.92;64.02;99334.03;5100211;28;20460;-80
2021/03/23 08:52:59;;;;;;;60.70;28.95;;;7.00;75.90;;;6.02;64.23;99333.78;5102779;28;20519;-80
2021/03/23 08:55:47;;;;;;;89.45;29.15;;;7.10;76.20;;;6.03;64.12;99333.63;5103667;28;20398;-80
2021/03/23 08:58:54;;;;;;;47.78;22.65;;;7.10;75.90;;;6.05;63.53;99333.44;5103427;28;20480;-79
2021/03/23 09:01:41;;;;;;;44.00;22.50;;;7.20;75.10;;;6.09;63.30;99338.19;5103029;28;20504;-80
2021/03/23 09:04:41;;;;;;;47.80;23.73;;;7.20;75.10;;;6.34;62.92;99332.75;5103778;28;20402;-80
2021/03/23 09:07:22;;;;;;;49.40;22.45;;;7.40;75.00;;;6.30;61.93;99334.94;5001972;28;20426;-80
2021/03/23 09:09:57;;;;;;;40.10;22.50;;;7.40;73.80;;;6.29;62.19;99340.34;5092344;28;20402;-80
2021/03/23 09:12:49;;;;;;;46.20;21.57;;;7.40;73.60;;;6.28;62.48;99341.34;5083888;28;20429;-80
2021/03/23 09:15:24;;;;;;;45.03;19.83;;;7.40;73.80;;;6.35;61.93;99342.28;5084435;28;20479;-80
2021/03/23 09:18:25;;;;;;;52.45;20.15;;;7.40;73.40;;;6.58;61.00;99343.09;5085167;28;20533;-80
2021/03/23 09:21:43;;;;;;;38.13;17.75;;;7.60;73.10;;;6.42;59.95;99344.03;5101289;28;20402;-80
2021/03/23 09:24:42;;;;;;;33.65;17.15;;;7.50;70.60;;;6.35;59.18;99342.28;5100783;28;20826;-80
2021/03/23 09:27:13;;;;;;;29.52;13.13;;;7.40;70.20;;;6.27;57.70;99344.97;5101887;28;20409;-81
2021/03/23 09:29:48;;;;;;;26.40;13.85;;;7.40;68.10;;;6.36;57.93;99333.41;5067493;28;20756;-80
2021/03/23 09:32:28;;;;;;;35.67;16.27;;;7.40;68.60;;;6.80;57.67;99331.69;5103549;28;20433;-79
2021/03/23 09:35:15;;;;;;;35.42;15.93;;;7.60;69.20;;;6.80;55.54;99330.88;5114406;28;20410;-79
2021/03/23 09:38:26;;;;;;;22.70;12.45;;;7.90;66.50;;;6.90;56.04;99332.28;5099753;28;20504;-79
2021/03/23 09:41:00;;;;;;;26.23;11.97;;;7.70;66.40;;;6.77;54.36;99325.97;5105702;28;20691;-79
2021/03/23 09:43:40;;;;;;;20.52;11.93;;;7.80;64.30;;;6.72;55.25;99323.88;5080702;28;20445;-81
2021/03/23 09:46:52;;;;;;;25.17;12.68;;;7.70;65.10;;;6.74;55.23;99324.53;5101464;28;20481;-81
2021/03/23 09:49:33;;;;;;;22.38;12.32;;;7.80;65.90;;;7.03;54.51;99323.75;5102108;28;20417;-80
2021/03/23 09:52:12;;;;;;;89.78;15.95;;;8.10;64.80;;;7.37;52.19;99318.72;5102799;28;20398;-81
2021/03/23 09:54:58;;;;;;;23.10;11.40;;;8.30;62.10;;;7.33;52.78;99316.66;5102174;28;20741;-81
2021/03/23 09:57:33;;;;;;;30.42;10.40;;;8.30;62.40;;;7.34;52.84;99313.84;5083658;28;20410;-81
2021/03/23 10:00:45;;;;;;;19.73;10.18;;;8.30;62.50;;;7.08;52.48;99318.75;5100344;28;20440;-80
2021/03/23 10:03:48;;;;;;;18.77;10.03;;;8.20;61.70;;;7.31;52.98;99314.19;5102413;28;20433;-81
2021/03/23 10:06:27;;;;;;;20.88;11.85;;;8.20;63.10;;;7.49;52.85;99327.00;5102820;28;20516;-80
2021/03/23 10:09:11;;;;;;;23.10;11.65;;;8.40;62.30;;;7.53;52.14;99316.91;5107833;28;20506;-80
2021/03/23 10:11:47;;;;;;;28.10;12.95;;;8.50;62.00;;;7.25;52.67;99314.13;5094397;28;20414;-80
2021/03/23 10:14:44;;;;;;;22.55;12.60;;;8.40;61.70;;;7.14;53.58;99315.38;5113315;28;20414;-80
2021/03/23 10:17:24;;;;;;;20.35;11.38;;;8.20;62.90;;;7.50;51.95;99320.75;5108224;28;20812;-80
2021/03/23 10:19:59;;;;;;;17.48;10.38;;;8.40;61.70;;;7.36;52.11;99306.59;5101182;28;20406;-78
2021/03/23 10:22:29;;;;;;;22.17;10.77;;;8.40;60.90;;;7.35;51.77;99310.22;5100013;28;20445;-80
2021/03/23 10:25:21;;;;;;;21.23;10.68;;;8.40;61.20;;;7.67;51.07;99305.50;5096982;28;20641;-80
2021/03/23 10:27:51;;;;;;;21.98;9.60;;;8.60;60.50;;;7.55;50.47;99313.09;5099921;28;20413;-79
2021/03/23 10:30:32;;;;;;;17.52;9.10;;;8.60;59.30;;;7.54;50.23;99302.72;5098654;28;20488;-79
2021/03/23 10:33:20;;;;;;;24.15;9.27;;;8.50;58.90;;;7.46;50.87;99298.38;5081701;28;20413;-78
2021/03/23 10:36:04;;;;;;;19.65;9.82;;;8.50;59.70;;;7.67;48.91;99301.06;5098508;28;20680;-78
2021/03/23 10:38:56;;;;;;;13.50;8.20;;;8.50;59.30;;;7.69;49.44;99306.16;5096316;28;20437;-78
2021/03/23 10:41:37;;;;;;;11.82;7.22;;;8.60;58.30;;;7.39;48.42;99295.66;5095046;28;20666;-78
2021/03/23 10:44:32;;;;;;;15.65;7.60;;;8.50;57.00;;;7.45;49.39;99294.09;5098385;28;20491;-78
2021/03/23 10:47:31;;;;;;;15.32;8.63;;;8.40;58.30;;;7.37;50.32;99305.56;5081572;28;20509;-80
2021/03/23 10:53:20;;;;;;;17.75;10.05;;;8.30;59.40;;;7.31;51.30;99306.28;6150375;22;20379;-78
2021/03/23 10:55:57;;;;;;;26.13;12.50;;;8.30;60.10;;;7.46;51.30;99305.47;5000339;28;20427;-78
2021/03/23 10:58:26;;;;;;;14.07;8.30;;;8.50;60.40;;;7.63;49.74;99309.53;4997050;28;20967;-78